createdAt,value
2022-11-23T00:04:42.507Z,86.93
2022-11-23T00:14:45.914Z,78.13
2022-11-23T00:24:53.537Z,33.27
2022-11-23T00:34:58.128Z,75.13
2022-11-23T00:45:06.745Z,71.83
2022-11-23T00:55:10.354Z,75.93
2022-11-23T01:05:15.553Z,64.43
2022-11-23T01:15:17.839Z,62.23
2022-11-23T01:25:22.495Z,74.30
2022-11-23T01:35:27.109Z,61.97
2022-11-23T01:45:39.373Z,64.07
2022-11-23T01:55:42.945Z,64.03
2022-11-23T02:05:54.598Z,46.30
2022-11-23T02:16:00.453Z,61.67
2022-11-23T02:26:11.795Z,67.57
2022-11-23T02:36:40.682Z,66.27
2022-11-23T02:46:45.499Z,75.07
2022-11-23T02:56:51.329Z,66.40
2022-11-23T03:06:56.854Z,72.27
2022-11-23T03:17:05.333Z,67.37
2022-11-23T03:27:12.865Z,72.07
2022-11-23T03:37:16.141Z,67.40
2022-11-23T03:47:26.826Z,62.27
2022-11-23T03:57:29.323Z,56.47
2022-11-23T04:07:31.794Z,73.83
2022-11-23T04:17:41.588Z,66.13
2022-11-23T04:27:47.047Z,68.90
2022-11-23T04:37:49.917Z,53.10
2022-11-23T04:47:55.603Z,56.87
2022-11-23T04:58:02.704Z,45.90
2022-11-23T05:08:08.515Z,31.47
2022-11-23T05:18:25.162Z,14.80
2022-11-23T05:28:40.023Z,37.90
2022-11-23T05:38:46.715Z,45.37
2022-11-23T05:49:03.016Z,50.13
2022-11-23T05:59:11.736Z,31.97
2022-11-23T06:09:16.314Z,12.73
2022-11-23T06:19:23.998Z,24.53
2022-11-23T06:29:31.473Z,33.83
2022-11-23T06:39:35.906Z,39.17
2022-11-23T06:49:42.726Z,29.43
2022-11-23T07:00:01.258Z,16.57
2022-11-23T07:10:09.957Z,38.33
2022-11-23T07:20:22.468Z,40.80
2022-11-23T07:30:31.893Z,36.27
2022-11-23T07:40:36.994Z,32.43
2022-11-23T07:50:47.324Z,29.93
2022-11-23T08:00:53.581Z,21.53
2022-11-23T08:10:58.445Z,29.80
2022-11-23T08:21:03.653Z,35.50
2022-11-23T08:31:09.183Z,30.13
2022-11-23T08:41:21.255Z,31.10
2022-11-23T08:51:25.987Z,15.13
2022-11-23T09:01:30.492Z,31.87
2022-11-23T09:11:35.307Z,24.00
2022-11-23T09:21:39.405Z,26.67
2022-11-23T09:31:41.546Z,27.60
2022-11-23T09:41:46.490Z,17.97
2022-11-23T09:51:51.255Z,20.00
2022-11-23T10:01:59.088Z,25.53
2022-11-23T10:12:18.068Z,18.40
2022-11-23T10:22:29.366Z,25.27
2022-11-23T10:32:38.711Z,28.60
2022-11-23T10:42:50.560Z,26.03
2022-11-23T10:53:20.366Z,24.80
2022-11-23T11:03:26.128Z,24.23
2022-11-23T11:13:38.448Z,17.23
2022-11-23T11:23:40.958Z,16.50
2022-11-23T11:33:57.758Z,22.23
2022-11-23T11:44:10.050Z,30.70
2022-11-23T11:54:32.075Z,29.30
2022-11-23T12:04:45.265Z,28.07
2022-11-23T12:14:47.484Z,29.73
2022-11-23T12:24:55.857Z,29.37
2022-11-23T12:35:27.601Z,28.30
2022-11-23T12:45:51.478Z,32.43
2022-11-23T12:56:05.845Z,29.90
2022-11-23T13:06:18.536Z,37.70
2022-11-23T13:17:00.399Z,45.43
2022-11-23T13:27:14.290Z,44.87
2022-11-23T13:37:24.317Z,39.03
2022-11-23T13:47:30.139Z,38.00
2022-11-23T13:57:34.928Z,40.87
2022-11-23T14:07:43.506Z,38.60
2022-11-23T14:18:11.907Z,25.97
2022-11-23T14:28:47.889Z,41.23
2022-11-23T14:39:22.292Z,47.03
2022-11-23T14:49:27.249Z,46.00
2022-11-23T14:59:35.885Z,44.27
2022-11-23T15:09:52.181Z,59.87
2022-11-23T15:20:01.194Z,59.00
2022-11-23T15:30:38.737Z,37.13
2022-11-23T15:40:49.031Z,36.43
2022-11-23T15:50:54.010Z,67.00
2022-11-23T16:01:16.373Z,57.00
2022-11-23T16:11:31.804Z,20.10
2022-11-23T16:21:34.003Z,30.23
2022-11-23T16:31:40.296Z,25.53
2022-11-23T16:41:45.739Z,53.57
2022-11-23T16:51:56.754Z,54.80
2022-11-23T17:02:05.042Z,44.20
2022-11-23T17:12:15.074Z,42.43
2022-11-23T17:22:20.579Z,35.63
2022-11-23T17:32:25.270Z,36.13
2022-11-23T17:42:29.662Z,57.13
2022-11-23T17:52:34.182Z,58.90
2022-11-23T18:02:37.793Z,21.13
2022-11-23T18:12:44.729Z,26.63
2022-11-23T18:22:46.851Z,27.10
2022-11-23T18:32:51.429Z,42.33
2022-11-23T18:42:58.802Z,58.23
2022-11-23T18:53:00.868Z,27.57
2022-11-23T19:03:08.697Z,51.97
2022-11-23T19:13:12.161Z,59.17
2022-11-23T19:23:19.352Z,38.10
2022-11-23T19:33:21.421Z,28.93
2022-11-23T19:43:26.081Z,43.37
2022-11-23T19:53:31.126Z,57.53
2022-11-23T20:03:37.439Z,61.40
2022-11-23T20:13:46.674Z,25.63
2022-11-23T20:23:50.826Z,48.60
2022-11-23T20:33:54.069Z,59.37
2022-11-23T20:44:01.551Z,42.00
2022-11-23T20:54:05.433Z,35.03
2022-11-23T21:04:10.006Z,45.73
2022-11-23T21:14:24.709Z,39.20
2022-11-23T21:24:29.867Z,25.80
2022-11-23T21:34:35.371Z,53.53
2022-11-23T21:44:40.914Z,54.60
2022-11-23T21:54:49.166Z,28.43
2022-11-23T22:04:53.913Z,45.40
2022-11-23T22:14:56.657Z,34.80
2022-11-23T22:24:59.022Z,42.43
2022-11-23T22:35:03.371Z,19.40
2022-11-23T22:45:05.917Z,40.43
2022-11-23T22:55:12.354Z,13.20
2022-11-23T23:05:16.726Z,12.03
2022-11-23T23:15:24.248Z,43.73
2022-11-23T23:25:32.237Z,27.93
2022-11-23T23:35:38.150Z,17.93
2022-11-23T23:45:42.856Z,20.00
2022-11-23T23:55:55.680Z,16.73
